Chenega Bay, Alaska
Current Conditions -  °F | °C
As of 2:53 PM on Friday 31 Oct 2014 (Local Time) from PACV Reporting Station
Broken Clouds Broken Clouds  
Wind Chill: 42°   Ceiling: 20000
Heat Index: 42°   Visibility: 10mi
Dew Point: 27°   Wind: 0mph
Humidity: 55%   Direction: NA
Pressure: 29.3"   Gusts: NA
Location:  60.5501°N, 145.751°W
Report Text: PACV 312253Z 00000KT 10SM FEW030 FEW065 BKN200 06/M03 A2930 RMK AO2 SLP920 T00561028
Loading
Personal Weather Stations






























Interactive Weather Map
Tropical Storm Tracking
New forecast layout! Learn more

10-Day Weather Forecast

Advertisements
Track Severe Weather on mobile